Time;durP1;ratioP1;P1;durP2;ratioP2;P2;SDS_P1;SDS_P2;PMS_P1;PMS_P2;Temp;Humidity;BMP_temperature;BMP_pressure;BME280_temperature;BME280_humidity;BME280_pressure;Samples;Min_cycle;Max_cycle;Signal;HPM_P1;HPM_P2
2023/03/05 00:00:10;;;;;;;48.10;24.07;;;0.60;99.90;;;;;;4246198;27;20278;-62
2023/03/05 00:02:12;;;;;;;54.53;24.97;;;0.50;99.90;;;;;;4247119;27;20604;-62
2023/03/05 00:04:14;;;;;;;53.67;24.23;;;0.50;99.90;;;;;;4243953;27;20292;-62
2023/03/05 00:06:16;;;;;;;54.87;25.63;;;0.50;99.90;;;;;;4247178;27;20287;-62
2023/03/05 00:08:17;;;;;;;52.67;23.43;;;0.50;99.90;;;;;;4246020;27;20309;-62
2023/03/05 00:10:18;;;;;;;54.33;25.30;;;0.50;99.90;;;;;;4245093;27;20309;-65
2023/03/05 00:12:19;;;;;;;56.17;25.40;;;0.50;99.90;;;;;;4245704;27;20267;-62
2023/03/05 00:14:21;;;;;;;49.90;22.17;;;0.40;99.90;;;;;;4245676;27;20334;-61
2023/03/05 00:16:25;;;;;;;51.37;24.03;;;0.30;99.90;;;;;;4246071;27;20328;-62
2023/03/05 00:18:26;;;;;;;47.93;22.27;;;0.20;99.90;;;;;;4246076;27;20272;-66
2023/03/05 00:20:27;;;;;;;43.60;21.70;;;0.20;99.90;;;;;;4247222;27;20259;-62
2023/03/05 00:22:28;;;;;;;44.60;21.37;;;0.20;99.90;;;;;;4245777;27;20743;-64
2023/03/05 00:24:29;;;;;;;40.77;20.27;;;0.20;99.90;;;;;;4247162;27;20251;-61
2023/03/05 00:26:33;;;;;;;46.57;22.57;;;0.20;99.90;;;;;;4245570;27;20304;-62
2023/03/05 00:28:35;;;;;;;59.17;23.63;;;0.20;99.90;;;;;;4234071;27;20331;-62
2023/03/05 00:30:36;;;;;;;43.00;21.23;;;0.10;99.90;;;;;;4245348;27;20259;-62
2023/03/05 00:32:37;;;;;;;48.37;22.27;;;0.20;99.90;;;;;;4245241;27;20325;-63
2023/03/05 00:34:38;;;;;;;41.40;21.53;;;0.10;99.90;;;;;;4245684;27;20290;-61
2023/03/05 00:36:41;;;;;;;48.20;22.13;;;0.20;99.90;;;;;;4246127;27;20307;-62
2023/03/05 00:38:42;;;;;;;40.27;20.10;;;0.20;99.90;;;;;;4245483;27;20264;-62
2023/03/05 00:40:43;;;;;;;44.57;20.57;;;0.20;99.90;;;;;;4245263;27;20275;-62
2023/03/05 00:42:45;;;;;;;41.33;19.27;;;0.20;99.90;;;;;;4245375;27;20275;-62
2023/03/05 00:44:46;;;;;;;43.50;20.30;;;0.20;99.90;;;;;;4246314;27;20264;-62
2023/03/05 00:46:47;;;;;;;45.13;20.47;;;0.20;99.90;;;;;;4245616;27;20316;-62
2023/03/05 00:48:49;;;;;;;43.93;19.33;;;0.30;99.90;;;;;;4245776;27;20746;-62
2023/03/05 00:50:50;;;;;;;42.67;17.87;;;0.30;99.90;;;;;;4243992;27;20275;-62
2023/03/05 00:52:52;;;;;;;35.90;18.50;;;0.30;99.90;;;;;;4245453;27;20314;-62
2023/03/05 00:54:53;;;;;;;41.83;18.53;;;0.40;99.90;;;;;;4246568;27;20279;-62
2023/03/05 00:56:54;;;;;;;32.67;15.30;;;0.30;99.90;;;;;;4245336;27;20328;-62
2023/03/05 00:58:55;;;;;;;36.23;16.33;;;0.20;99.90;;;;;;4246419;27;20267;-63
2023/03/05 01:00:58;;;;;;;35.07;15.10;;;0.10;99.90;;;;;;4245515;27;20283;-62
2023/03/05 01:02:59;;;;;;;29.47;14.37;;;0.10;99.90;;;;;;4245980;27;20283;-62
2023/03/05 01:05:01;;;;;;;28.23;13.47;;;0.10;99.90;;;;;;4244776;27;20708;-61
2023/03/05 01:07:02;;;;;;;32.93;15.37;;;0.10;99.90;;;;;;4246345;27;20267;-62
2023/03/05 01:09:03;;;;;;;30.43;14.00;;;0.20;99.90;;;;;;4243921;27;20320;-62
2023/03/05 01:11:05;;;;;;;31.13;14.97;;;0.20;99.90;;;;;;4245107;27;20312;-62
2023/03/05 01:13:07;;;;;;;31.00;14.83;;;0.20;99.90;;;;;;4244784;27;20320;-61
2023/03/05 01:15:08;;;;;;;34.07;17.00;;;0.20;99.90;;;;;;4244452;27;20259;-63
2023/03/05 01:17:09;;;;;;;30.50;15.00;;;0.20;99.90;;;;;;4245435;27;20295;-62
2023/03/05 01:19:12;;;;;;;29.83;13.93;;;0.20;99.90;;;;;;4245525;27;20746;-63
2023/03/05 01:21:13;;;;;;;31.53;15.23;;;0.30;99.90;;;;;;4245449;27;20343;-60
2023/03/05 01:23:14;;;;;;;32.07;14.87;;;0.30;99.90;;;;;;4243977;27;20275;-62
2023/03/05 01:25:16;;;;;;;29.87;14.53;;;0.30;99.90;;;;;;4245896;27;20275;-62
2023/03/05 01:27:17;;;;;;;29.53;13.60;;;0.40;99.90;;;;;;4244407;27;20328;-62
2023/03/05 01:29:19;;;;;;;31.17;13.00;;;0.40;99.90;;;;;;4244010;27;20363;-62
2023/03/05 01:31:20;;;;;;;29.37;13.73;;;0.40;99.90;;;;;;4244796;27;20735;-64
2023/03/05 01:33:21;;;;;;;29.27;13.63;;;0.40;99.90;;;;;;4245800;27;20259;-63
2023/03/05 01:35:25;;;;;;;30.47;14.70;;;0.40;99.90;;;;;;4243725;27;20271;-62
2023/03/05 01:37:27;;;;;;;29.07;13.67;;;0.40;99.90;;;;;;4245860;27;20315;-63
2023/03/05 01:39:28;;;;;;;35.40;14.37;;;0.40;99.90;;;;;;4244375;27;20320;-63
2023/03/05 01:41:29;;;;;;;36.37;15.63;;;0.50;99.90;;;;;;4245541;27;20259;-62
2023/03/05 01:43:30;;;;;;;42.80;17.33;;;0.30;99.90;;;;;;4244814;27;20260;-62
2023/03/05 01:45:32;;;;;;;32.57;16.07;;;0.20;99.90;;;;;;4244246;27;20263;-62
2023/03/05 01:47:33;;;;;;;32.60;15.53;;;0.10;99.90;;;;;;4243958;27;20255;-62
2023/03/05 01:49:40;;;;;;;31.40;16.00;;;0.10;99.90;;;;;;4245616;27;20263;-63
2023/03/05 01:51:50;;;;;;;29.23;14.87;;;0.10;99.90;;;;;;4244767;27;20324;-62
2023/03/05 01:53:53;;;;;;;29.10;14.98;;;0.10;99.90;;;;;;4244731;27;20287;-62
2023/03/05 01:55:54;;;;;;;34.57;14.00;;;0.10;99.90;;;;;;4244673;27;20057;-63
2023/03/05 01:58:05;;;;;;;33.40;15.43;;;0.10;99.90;;;;;;4243568;27;20272;-62
2023/03/05 02:00:18;;;;;;;32.83;14.63;;;0.10;99.90;;;;;;4244922;27;20289;-62
2023/03/05 02:02:23;;;;;;;33.10;15.60;;;0.10;99.90;;;;;;4243816;27;20429;-60
2023/03/05 02:04:33;;;;;;;41.37;17.07;;;0.20;99.90;;;;;;4245003;27;20280;-64
2023/03/05 02:06:34;;;;;;;33.85;15.32;;;0.20;99.90;;;;;;4240626;27;20267;-61
2023/03/05 02:08:35;;;;;;;30.63;13.97;;;0.10;99.90;;;;;;4245582;27;20031;-62
2023/03/05 02:10:46;;;;;;;31.63;15.30;;;0.00;99.90;;;;;;4242089;27;20275;-61
2023/03/05 02:12:49;;;;;;;30.67;15.20;;;0.00;99.90;;;;;;4245119;27;20335;-64
2023/03/05 02:14:57;;;;;;;33.10;15.10;;;0.10;99.90;;;;;;4244447;27;20735;-62
2023/03/05 02:16:59;;;;;;;32.87;15.27;;;0.10;99.90;;;;;;4245053;27;20295;-61
2023/03/05 02:19:03;;;;;;;34.53;15.70;;;0.10;99.90;;;;;;4244393;27;20279;-63
2023/03/05 02:21:05;;;;;;;36.73;15.20;;;0.10;99.90;;;;;;4245456;27;20291;-62
2023/03/05 02:23:06;;;;;;;33.20;14.63;;;0.10;99.90;;;;;;4243720;27;20275;-62
2023/03/05 02:25:34;;;;;;;33.00;15.80;;;0.10;99.90;;;;;;4244784;27;20669;-62
2023/03/05 02:27:35;;;;;;;35.63;16.73;;;0.10;99.90;;;;;;4239507;27;20268;-62
2023/03/05 02:29:40;;;;;;;45.33;19.27;;;0.00;99.90;;;;;;4245375;27;20592;-61
2023/03/05 02:31:42;;;;;;;41.03;17.80;;;0.00;99.90;;;;;;4243599;27;20271;-62
2023/03/05 02:33:44;;;;;;;35.77;16.53;;;-0.20;99.90;;;;;;4244569;27;20275;-63
2023/03/05 02:35:45;;;;;;;37.03;16.70;;;-0.20;99.90;;;;;;4243288;27;20690;-61
2023/03/05 02:37:46;;;;;;;37.83;16.67;;;-0.30;99.90;;;;;;4245240;28;20295;-62
2023/03/05 02:39:47;;;;;;;41.57;17.97;;;-0.30;99.90;;;;;;4244105;28;20799;-62
2023/03/05 02:41:48;;;;;;;32.67;16.63;;;-0.30;99.90;;;;;;4244697;28;20271;-63
2023/03/05 02:43:50;;;;;;;34.67;16.50;;;-0.40;99.90;;;;;;4243945;28;20267;-62
2023/03/05 02:45:51;;;;;;;38.33;17.03;;;-0.30;99.90;;;;;;4244339;27;20395;-62
2023/03/05 02:47:54;;;;;;;40.57;19.07;;;-0.30;99.90;;;;;;4243537;28;20672;-62
2023/03/05 02:49:55;;;;;;;40.33;17.77;;;-0.30;99.90;;;;;;4242614;28;20770;-62
2023/03/05 02:51:57;;;;;;;34.27;17.17;;;-0.30;99.90;;;;;;4243947;27;20750;-61
2023/03/05 02:53:58;;;;;;;35.73;16.37;;;-0.20;99.90;;;;;;4243612;28;20677;-60
2023/03/05 02:55:59;;;;;;;37.13;17.17;;;-0.20;99.90;;;;;;4244443;28;20324;-62
2023/03/05 02:58:00;;;;;;;41.03;17.00;;;-0.20;99.90;;;;;;4243505;27;20295;-61
2023/03/05 03:00:02;;;;;;;38.10;17.40;;;-0.20;99.90;;;;;;4244968;28;20301;-63
2023/03/05 03:02:03;;;;;;;39.67;15.80;;;-0.20;99.90;;;;;;4243705;27;20292;-62
2023/03/05 03:04:04;;;;;;;35.93;16.70;;;-0.30;99.90;;;;;;4245146;28;20267;-63
2023/03/05 03:06:06;;;;;;;36.70;16.03;;;-0.30;99.90;;;;;;4243046;27;20263;-62
2023/03/05 03:08:07;;;;;;;33.37;15.53;;;-0.30;99.90;;;;;;4244390;27;20903;-63
2023/03/05 03:10:09;;;;;;;36.87;16.07;;;-0.30;99.90;;;;;;4243753;28;20271;-63
2023/03/05 03:12:11;;;;;;;34.27;16.23;;;-0.20;99.90;;;;;;4243907;28;20316;-63
2023/03/05 03:14:12;;;;;;;34.90;17.57;;;-0.20;99.90;;;;;;4243506;28;20348;-63
2023/03/05 03:16:14;;;;;;;41.33;16.30;;;-0.20;99.90;;;;;;4243975;27;20359;-62
2023/03/05 03:18:15;;;;;;;38.57;16.10;;;-0.20;99.90;;;;;;4244271;27;20275;-63
2023/03/05 03:20:17;;;;;;;37.90;16.10;;;-0.20;99.90;;;;;;4244618;28;20309;-62
2023/03/05 03:22:18;;;;;;;35.53;14.93;;;-0.20;99.90;;;;;;4244492;28;20263;-62
2023/03/05 03:24:20;;;;;;;37.13;15.97;;;-0.30;99.90;;;;;;4243636;28;20275;-62
2023/03/05 03:26:21;;;;;;;38.60;16.73;;;-0.20;99.90;;;;;;4244559;28;20305;-62
2023/03/05 03:28:22;;;;;;;32.60;15.97;;;-0.20;99.90;;;;;;4243863;28;20668;-61
2023/03/05 03:30:23;;;;;;;28.10;14.93;;;-0.20;99.90;;;;;;4244706;28;20276;-62
2023/03/05 03:32:24;;;;;;;33.80;15.30;;;-0.30;99.90;;;;;;4242920;27;20328;-61
2023/03/05 03:34:26;;;;;;;32.60;15.83;;;-0.30;99.90;;;;;;4244913;27;20733;-62
2023/03/05 03:36:27;;;;;;;34.53;15.60;;;-0.30;99.90;;;;;;4243390;28;20272;-62
2023/03/05 03:38:28;;;;;;;30.13;15.43;;;-0.30;99.90;;;;;;4244761;28;20304;-62
2023/03/05 03:40:29;;;;;;;35.07;15.63;;;-0.30;99.90;;;;;;4243196;28;20287;-62
2023/03/05 03:42:31;;;;;;;35.80;15.80;;;-0.30;99.90;;;;;;4243513;27;20283;-62
2023/03/05 03:44:32;;;;;;;32.03;14.37;;;-0.30;99.90;;;;;;4243160;27;20275;-63
2023/03/05 03:46:33;;;;;;;28.23;14.40;;;-0.30;99.90;;;;;;4246393;27;20271;-63
2023/03/05 03:48:34;;;;;;;28.87;14.70;;;-0.30;99.90;;;;;;4247315;27;20316;-63
2023/03/05 03:50:42;;;;;;;33.83;14.77;;;-0.20;99.90;;;;;;4246359;27;20760;-63
2023/03/05 03:52:43;;;;;;;31.47;13.47;;;-0.20;99.90;;;;;;4246762;27;20267;-63
2023/03/05 03:54:44;;;;;;;35.67;15.77;;;-0.20;99.90;;;;;;4246378;27;20342;-63
2023/03/05 03:56:46;;;;;;;29.40;14.03;;;-0.20;99.90;;;;;;4245959;27;20283;-63
2023/03/05 03:58:51;;;;;;;28.27;14.00;;;-0.20;99.90;;;;;;4244693;27;20399;-62
2023/03/05 04:00:52;;;;;;;31.37;15.10;;;-0.10;99.90;;;;;;4247477;27;20275;-62
2023/03/05 04:02:53;;;;;;;35.50;15.50;;;-0.20;99.90;;;;;;4245748;27;20283;-63
2023/03/05 04:04:54;;;;;;;32.50;14.90;;;-0.10;99.90;;;;;;4247050;27;20761;-62
2023/03/05 04:06:56;;;;;;;28.23;13.23;;;-0.10;99.90;;;;;;4244422;27;20762;-62
2023/03/05 04:08:57;;;;;;;28.80;15.00;;;-0.20;99.90;;;;;;4247577;27;20263;-61
2023/03/05 04:11:00;;;;;;;31.83;15.57;;;-0.20;99.90;;;;;;4245309;27;20683;-62
2023/03/05 04:13:01;;;;;;;29.87;14.30;;;-0.20;99.90;;;;;;4245220;27;20318;-64
2023/03/05 04:15:04;;;;;;;30.10;14.17;;;-0.20;99.90;;;;;;4246083;27;20260;-64
2023/03/05 04:17:05;;;;;;;31.17;14.17;;;-0.10;99.90;;;;;;4247078;27;20279;-62
2023/03/05 04:19:06;;;;;;;32.73;14.97;;;-0.10;99.90;;;;;;4246369;27;20324;-62
2023/03/05 04:21:08;;;;;;;39.10;13.23;;;-0.10;99.90;;;;;;4246703;27;20268;-65
2023/03/05 04:23:09;;;;;;;27.77;13.13;;;-0.10;99.90;;;;;;4246136;27;20750;-62
2023/03/05 04:25:10;;;;;;;28.97;12.30;;;-0.10;99.90;;;;;;4245682;27;20271;-62
2023/03/05 04:27:12;;;;;;;31.00;13.60;;;-0.10;99.90;;;;;;4246349;27;20271;-62
2023/03/05 04:29:13;;;;;;;30.03;12.57;;;-0.10;99.90;;;;;;4245910;27;20259;-63
2023/03/05 04:31:14;;;;;;;31.97;14.50;;;-0.10;99.90;;;;;;4246374;27;20347;-63
2023/03/05 04:33:15;;;;;;;31.63;14.20;;;-0.10;99.90;;;;;;4245571;27;20275;-63
2023/03/05 04:35:17;;;;;;;30.70;14.80;;;-0.10;99.90;;;;;;4246577;27;20275;-61
2023/03/05 04:37:18;;;;;;;27.23;12.70;;;-0.20;99.90;;;;;;4245579;27;20296;-61
2023/03/05 04:39:22;;;;;;;26.90;13.67;;;-0.10;99.90;;;;;;4246223;27;20259;-62
2023/03/05 04:41:23;;;;;;;28.00;13.13;;;-0.10;99.90;;;;;;4244109;27;20271;-61
2023/03/05 04:43:24;;;;;;;31.03;12.17;;;-0.10;99.90;;;;;;4246786;27;20750;-62
2023/03/05 04:45:26;;;;;;;33.37;14.43;;;-0.10;99.90;;;;;;4244778;27;20786;-62
2023/03/05 04:47:27;;;;;;;27.47;14.43;;;0.00;99.90;;;;;;4246408;27;20271;-62
2023/03/05 04:49:28;;;;;;;27.10;12.27;;;0.00;99.90;;;;;;4245964;27;20284;-62
2023/03/05 04:51:29;;;;;;;26.60;11.97;;;0.00;99.90;;;;;;4245675;27;20271;-62
2023/03/05 04:53:31;;;;;;;26.20;13.53;;;0.00;99.90;;;;;;4245092;27;20325;-63
2023/03/05 04:55:32;;;;;;;30.90;13.27;;;0.00;99.90;;;;;;4245212;27;20763;-62
2023/03/05 04:57:34;;;;;;;31.03;14.03;;;0.00;99.90;;;;;;4245539;27;20371;-62
2023/03/05 04:59:37;;;;;;;27.13;12.07;;;0.00;99.90;;;;;;4245463;27;20660;-63
2023/03/05 05:01:38;;;;;;;29.00;13.53;;;0.00;99.90;;;;;;4246587;27;21222;-61
2023/03/05 05:03:39;;;;;;;26.90;12.77;;;0.10;99.90;;;;;;4244573;27;20708;-61
2023/03/05 05:05:40;;;;;;;25.90;11.90;;;0.00;99.90;;;;;;4246403;27;20308;-61
2023/03/05 05:07:42;;;;;;;27.07;12.80;;;0.10;99.90;;;;;;4245159;27;20256;-61
2023/03/05 05:09:43;;;;;;;26.70;12.67;;;0.20;99.90;;;;;;4246421;27;20499;-62
2023/03/05 05:11:44;;;;;;;28.43;12.43;;;0.20;99.90;;;;;;4244709;27;20692;-61
2023/03/05 05:13:45;;;;;;;24.00;12.57;;;0.30;99.90;;;;;;4246011;27;20324;-62
2023/03/05 05:15:46;;;;;;;25.40;12.80;;;0.40;99.90;;;;;;4244894;27;20324;-60
2023/03/05 05:17:48;;;;;;;22.40;11.73;;;0.50;99.90;;;;;;4245818;27;20291;-63
2023/03/05 05:19:49;;;;;;;27.67;12.77;;;0.70;99.90;;;;;;4244988;27;20366;-62
2023/03/05 05:21:50;;;;;;;28.00;12.67;;;0.80;99.90;;;;;;4245776;27;20727;-62
2023/03/05 05:23:51;;;;;;;24.23;12.33;;;1.00;99.90;;;;;;4243540;27;20301;-62
2023/03/05 05:26:04;;;;;;;25.23;12.17;;;1.20;99.90;;;;;;4245198;27;20275;-62
2023/03/05 05:28:06;;;;;;;29.37;12.60;;;1.40;99.90;;;;;;4244502;27;20267;-63
2023/03/05 05:30:08;;;;;;;27.30;13.10;;;1.60;99.90;;;;;;4245229;27;20336;-62
2023/03/05 05:32:09;;;;;;;24.27;12.40;;;1.70;99.90;;;;;;4245322;27;20275;-62
2023/03/05 05:34:10;;;;;;;27.20;12.87;;;1.90;99.90;;;;;;4242975;27;20328;-62
2023/03/05 05:36:14;;;;;;;28.67;13.37;;;2.10;99.90;;;;;;4245529;27;20263;-63
2023/03/05 05:38:15;;;;;;;27.80;12.27;;;2.20;99.90;;;;;;4244169;27;20318;-65
2023/03/05 05:40:16;;;;;;;26.17;12.23;;;2.30;99.90;;;;;;4245948;27;20263;-62
2023/03/05 05:42:18;;;;;;;25.33;12.77;;;2.50;99.90;;;;;;4244837;27;20267;-62
2023/03/05 05:44:19;;;;;;;24.53;13.17;;;2.80;99.90;;;;;;4245644;27;20379;-62
2023/03/05 05:46:21;;;;;;;25.37;11.50;;;3.20;99.90;;;;;;4244751;27;20306;-63
2023/03/05 05:48:23;;;;;;;24.87;12.27;;;3.50;99.90;;;;;;4245677;27;20275;-63
2023/03/05 05:50:25;;;;;;;20.37;10.77;;;3.80;99.90;;;;;;4244164;27;20283;-63
2023/03/05 05:52:27;;;;;;;25.40;13.00;;;4.10;99.90;;;;;;4244987;27;20279;-62
2023/03/05 05:54:28;;;;;;;26.03;11.93;;;4.40;99.90;;;;;;4243993;27;20267;-62
2023/03/05 05:56:29;;;;;;;20.70;10.77;;;4.80;99.90;;;;;;4241771;27;20267;-62
2023/03/05 05:58:30;;;;;;;27.80;12.80;;;5.20;99.90;;;;;;4244222;27;20387;-63
2023/03/05 06:00:31;;;;;;;22.63;11.57;;;5.50;99.90;;;;;;4244627;27;20826;-62
2023/03/05 06:02:33;;;;;;;24.37;11.90;;;5.60;99.90;;;;;;4243838;27;20015;-63
2023/03/05 06:04:35;;;;;;;24.20;11.43;;;5.60;99.90;;;;;;4243967;27;20312;-62
2023/03/05 06:06:36;;;;;;;24.60;11.40;;;5.50;99.90;;;;;;4245147;27;20069;-64
2023/03/05 06:08:38;;;;;;;20.67;11.70;;;5.30;99.90;;;;;;4243375;27;20424;-64
2023/03/05 06:10:39;;;;;;;19.90;10.10;;;5.20;99.90;;;;;;4244578;27;20043;-64
2023/03/05 06:12:40;;;;;;;19.03;9.37;;;5.00;99.90;;;;;;4244035;27;20039;-63
2023/03/05 06:14:41;;;;;;;20.37;9.33;;;4.80;99.90;;;;;;4244404;27;20107;-61
2023/03/05 06:16:42;;;;;;;21.57;10.63;;;4.80;99.90;;;;;;4243716;27;20555;-62
2023/03/05 06:18:44;;;;;;;17.87;10.00;;;4.70;99.90;;;;;;4244760;27;20055;-62
2023/03/05 06:20:52;;;;;;;18.77;10.07;;;4.70;99.90;;;;;;4243657;27;20519;-62
2023/03/05 06:22:54;;;;;;;19.23;10.10;;;4.70;99.90;;;;;;4245328;27;20035;-62
2023/03/05 06:24:55;;;;;;;18.13;10.23;;;4.50;99.90;;;;;;4243862;27;20696;-62
2023/03/05 06:26:56;;;;;;;19.00;9.77;;;4.50;99.90;;;;;;4244834;27;20484;-61
2023/03/05 06:28:58;;;;;;;17.33;9.47;;;4.40;99.90;;;;;;4241830;27;20095;-62
2023/03/05 06:31:08;;;;;;;18.83;9.67;;;4.40;99.90;;;;;;4244206;27;20023;-63
2023/03/05 06:33:09;;;;;;;24.08;9.82;;;4.20;99.90;;;;;;4243751;28;20359;-62
2023/03/05 06:35:10;;;;;;;19.13;8.97;;;4.10;99.90;;;;;;4244615;28;20080;-62
2023/03/05 06:37:11;;;;;;;18.03;9.30;;;3.90;99.90;;;;;;4244334;28;20027;-62
2023/03/05 06:39:13;;;;;;;18.40;10.57;;;3.80;99.90;;;;;;4243679;28;20027;-62
2023/03/05 06:41:17;;;;;;;19.77;8.67;;;3.80;99.90;;;;;;4244726;28;20268;-62
2023/03/05 06:43:18;;;;;;;16.70;8.57;;;3.90;99.90;;;;;;4243567;27;20283;-62
2023/03/05 06:45:19;;;;;;;17.67;8.67;;;3.90;99.90;;;;;;4245043;28;20267;-62
2023/03/05 06:47:20;;;;;;;17.47;8.60;;;3.90;99.90;;;;;;4243381;28;20743;-60
2023/03/05 06:49:21;;;;;;;15.90;8.23;;;3.80;99.90;;;;;;4245112;28;20268;-62
2023/03/05 06:51:29;;;;;;;20.00;9.13;;;3.80;99.90;;;;;;4243897;28;20271;-62
2023/03/05 06:53:30;;;;;;;15.27;9.00;;;3.80;99.90;;;;;;4244447;28;20329;-62
2023/03/05 06:55:38;;;;;;;19.03;8.60;;;3.80;99.90;;;;;;4242496;28;20287;-62
2023/03/05 06:57:39;;;;;;;17.87;9.20;;;3.80;99.90;;;;;;4244456;27;20291;-61
2023/03/05 06:59:40;;;;;;;16.47;8.73;;;3.80;99.90;;;;;;4243394;28;20312;-63
2023/03/05 07:01:43;;;;;;;15.73;8.27;;;3.60;99.90;;;;;;4244404;28;20271;-64
2023/03/05 07:03:47;;;;;;;13.93;7.47;;;3.60;99.90;;;;;;4243244;28;20681;-64
2023/03/05 07:05:48;;;;;;;14.90;7.87;;;3.40;99.90;;;;;;4244373;28;20296;-63
2023/03/05 07:07:49;;;;;;;20.67;8.70;;;3.40;99.90;;;;;;4243663;28;20275;-65
2023/03/05 07:09:51;;;;;;;16.90;8.00;;;3.40;99.90;;;;;;4242260;28;20283;-67
2023/03/05 07:11:53;;;;;;;13.80;7.60;;;3.50;99.90;;;;;;4243976;28;20723;-64
2023/03/05 07:13:54;;;;;;;13.87;7.90;;;3.40;99.90;;;;;;4243308;27;20267;-63
2023/03/05 07:15:55;;;;;;;16.13;7.57;;;3.40;99.90;;;;;;4244136;28;20268;-66
2023/03/05 07:17:56;;;;;;;18.27;7.37;;;3.40;99.90;;;;;;4243440;28;20291;-64
2023/03/05 07:19:57;;;;;;;15.67;8.17;;;3.50;99.90;;;;;;4246765;27;20827;-64
2023/03/05 07:21:58;;;;;;;16.77;8.37;;;3.60;99.90;;;;;;4246540;27;20275;-63
2023/03/05 07:24:01;;;;;;;20.60;8.43;;;3.60;99.90;;;;;;4247316;27;20679;-63
2023/03/05 07:26:05;;;;;;;20.63;8.70;;;3.70;99.90;;;;;;4246064;27;20275;-64
2023/03/05 07:28:06;;;;;;;16.47;8.43;;;3.70;99.90;;;;;;4247149;27;20324;-64
2023/03/05 07:30:08;;;;;;;14.03;7.97;;;3.70;99.90;;;;;;4246125;27;20328;-65
2023/03/05 07:32:09;;;;;;;17.27;8.53;;;3.80;99.90;;;;;;4247408;27;20344;-63
2023/03/05 07:34:10;;;;;;;21.07;8.70;;;3.90;99.90;;;;;;4246229;27;20286;-64
2023/03/05 07:36:11;;;;;;;15.87;8.00;;;4.10;99.90;;;;;;4247521;27;20275;-66
2023/03/05 07:38:12;;;;;;;16.40;7.93;;;4.40;99.90;;;;;;4246010;27;20384;-64
2023/03/05 07:40:14;;;;;;;18.23;7.97;;;4.80;99.90;;;;;;4247157;27;20264;-69
2023/03/05 07:42:15;;;;;;;18.63;9.13;;;5.10;99.90;;;;;;4242234;27;20244;-66
2023/03/05 07:44:16;;;;;;;18.23;7.70;;;5.30;99.90;;;;;;4246685;27;20332;-63
2023/03/05 07:46:19;;;;;;;16.43;8.00;;;5.50;99.90;;;;;;4247228;27;20244;-66
2023/03/05 07:48:21;;;;;;;16.30;8.47;;;5.70;99.90;;;;;;4244248;27;20343;-65
2023/03/05 07:50:22;;;;;;;16.77;7.70;;;6.10;99.90;;;;;;4247518;27;20084;-62
2023/03/05 07:52:24;;;;;;;16.27;8.03;;;6.50;99.90;;;;;;4246150;27;20316;-68
2023/03/05 07:54:25;;;;;;;16.47;8.13;;;6.80;99.90;;;;;;4246126;27;20271;-65
2023/03/05 07:56:31;;;;;;;16.47;7.47;;;6.90;99.90;;;;;;4245877;27;20031;-64
2023/03/05 07:58:32;;;;;;;14.43;7.43;;;7.00;99.90;;;;;;4246563;27;20088;-63
2023/03/05 08:00:33;;;;;;;12.80;6.70;;;7.10;99.90;;;;;;4245185;27;20060;-68
2023/03/05 08:02:34;;;;;;;15.60;7.13;;;7.20;99.90;;;;;;4245099;27;20039;-64
2023/03/05 08:04:37;;;;;;;13.77;7.50;;;7.50;99.90;;;;;;4245957;27;20428;-63
2023/03/05 08:06:40;;;;;;;12.80;7.47;;;8.10;99.90;;;;;;4246424;27;20023;-66
2023/03/05 08:08:41;;;;;;;11.70;6.50;;;8.20;99.90;;;;;;4245581;27;20036;-65
2023/03/05 08:10:42;;;;;;;12.77;6.30;;;8.40;99.90;;;;;;4246971;27;20420;-64
2023/03/05 08:12:43;;;;;;;15.33;7.27;;;8.90;99.50;;;;;;4245733;27;20046;-65
2023/03/05 08:14:46;;;;;;;14.60;7.27;;;9.30;98.60;;;;;;4246182;27;20494;-65
2023/03/05 08:16:51;;;;;;;13.50;7.70;;;9.60;98.40;;;;;;4246158;27;20039;-65
2023/03/05 08:18:56;;;;;;;13.97;6.70;;;9.40;97.50;;;;;;4246236;27;20428;-65
2023/03/05 08:20:58;;;;;;;11.27;6.63;;;9.90;97.30;;;;;;4246965;27;20084;-65
2023/03/05 08:22:59;;;;;;;15.30;7.37;;;10.00;96.80;;;;;;4245048;27;20039;-67
2023/03/05 08:25:01;;;;;;;17.30;7.50;;;10.10;96.10;;;;;;4246596;27;20039;-64
2023/03/05 08:27:03;;;;;;;14.43;8.07;;;10.40;96.20;;;;;;4245347;27;20080;-65
2023/03/05 08:29:06;;;;;;;13.73;6.97;;;10.70;95.50;;;;;;4246665;27;20060;-65
2023/03/05 08:31:14;;;;;;;12.27;6.90;;;10.70;94.50;;;;;;4242838;27;20047;-65
2023/03/05 08:33:18;;;;;;;25.87;13.57;;;10.60;94.60;;;;;;4240340;27;20039;-65
2023/03/05 08:35:20;;;;;;;17.93;9.60;;;10.30;94.10;;;;;;4243883;27;20084;-65
2023/03/05 08:37:21;;;;;;;11.40;6.77;;;10.20;94.20;;;;;;4246557;27;20031;-65
2023/03/05 08:39:22;;;;;;;16.00;8.23;;;9.90;93.40;;;;;;4244399;27;20080;-65
2023/03/05 08:41:23;;;;;;;14.73;8.83;;;9.70;93.40;;;;;;4245902;27;20076;-66
2023/03/05 08:43:24;;;;;;;10.27;6.33;;;9.70;93.20;;;;;;4244802;27;20550;-65
2023/03/05 08:45:26;;;;;;;11.40;6.40;;;10.20;93.40;;;;;;4246147;27;20023;-66
2023/03/05 08:47:27;;;;;;;9.60;5.50;;;10.70;92.80;;;;;;4242542;27;20027;-66
2023/03/05 08:49:29;;;;;;;11.23;5.53;;;11.00;92.30;;;;;;4244862;27;20035;-65
2023/03/05 08:51:30;;;;;;;14.90;5.70;;;10.80;91.70;;;;;;4245580;27;20085;-67
2023/03/05 08:53:31;;;;;;;10.93;6.07;;;11.00;92.10;;;;;;4245345;27;20047;-67
2023/03/05 08:55:32;;;;;;;10.50;6.13;;;10.20;88.70;;;;;;4245689;27;20043;-65
2023/03/05 08:57:33;;;;;;;12.23;5.90;;;9.40;90.00;;;;;;4245038;27;20023;-65
2023/03/05 08:59:34;;;;;;;10.13;5.30;;;9.10;90.20;;;;;;4246320;27;20047;-65
2023/03/05 09:01:36;;;;;;;9.87;5.23;;;8.80;90.40;;;;;;4243207;27;20027;-63
2023/03/05 09:03:37;;;;;;;9.67;4.63;;;8.20;88.90;;;;;;4245264;27;20059;-64
2023/03/05 09:05:38;;;;;;;8.47;5.33;;;8.10;89.50;;;;;;4244843;27;20031;-65
2023/03/05 09:07:40;;;;;;;9.27;5.23;;;8.40;90.30;;;;;;4245946;27;20064;-65
2023/03/05 09:09:41;;;;;;;7.63;4.70;;;8.90;89.70;;;;;;4244700;27;20084;-66
2023/03/05 09:11:42;;;;;;;9.70;4.80;;;8.50;87.70;;;;;;4245724;27;20076;-65
2023/03/05 09:13:44;;;;;;;9.03;4.90;;;8.50;89.50;;;;;;4245080;27;20047;-66
2023/03/05 09:15:45;;;;;;;6.47;4.27;;;8.80;90.00;;;;;;4245129;27;20064;-67
2023/03/05 09:17:46;;;;;;;6.53;4.33;;;8.40;87.70;;;;;;4244359;27;20739;-63
2023/03/05 09:19:47;;;;;;;8.43;4.83;;;8.20;85.90;;;;;;4245236;27;20035;-65
2023/03/05 09:21:48;;;;;;;13.23;4.33;;;7.70;87.90;;;;;;4245403;27;20504;-65
2023/03/05 09:23:49;;;;;;;7.27;3.83;;;7.60;89.10;;;;;;4245303;27;20035;-65
2023/03/05 09:25:51;;;;;;;5.83;3.57;;;7.80;89.10;;;;;;4245725;27;20099;-65
2023/03/05 09:27:52;;;;;;;11.00;4.60;;;8.00;89.00;;;;;;4244740;27;20019;-64
2023/03/05 09:29:53;;;;;;;7.37;4.30;;;8.10;89.30;;;;;;4245725;27;20511;-67
2023/03/05 09:31:54;;;;;;;6.63;4.30;;;7.90;88.40;;;;;;4243333;27;20031;-66
2023/03/05 09:33:55;;;;;;;11.20;5.27;;;8.00;88.70;;;;;;4243511;27;20039;-65
2023/03/05 09:35:57;;;;;;;8.10;3.73;;;8.10;88.90;;;;;;4243732;27;20031;-63
2023/03/05 09:37:58;;;;;;;8.67;4.30;;;8.30;89.10;;;;;;4245834;27;20174;-63
2023/03/05 09:39:59;;;;;;;5.37;3.10;;;8.80;88.20;;;;;;4244541;27;20732;-62
2023/03/05 09:42:04;;;;;;;8.10;3.90;;;9.30;88.20;;;;;;4244810;27;20463;-64
2023/03/05 09:44:19;;;;;;;8.33;3.80;;;9.20;85.70;;;;;;4243289;27;20031;-64
2023/03/05 09:46:30;;;;;;;6.37;3.77;;;8.70;84.70;;;;;;4245504;27;20039;-65
2023/03/05 09:49:16;;;;;;;7.40;3.70;;;8.40;87.10;;;;;;4244331;27;20482;-65
2023/03/05 09:51:24;;;;;;;9.17;3.87;;;8.50;85.70;;;;;;4240743;27;20329;-63
2023/03/05 09:53:32;;;;;;;8.20;4.33;;;8.60;87.80;;;;;;4242453;27;20573;-64
2023/03/05 09:55:39;;;;;;;5.73;3.70;;;8.60;87.10;;;;;;4243010;27;20080;-65
2023/03/05 09:57:50;;;;;;;7.90;4.30;;;8.70;86.40;;;;;;4244169;27;20035;-63
2023/03/05 10:00:09;;;;;;;5.30;3.60;;;8.50;87.40;;;;;;4244921;27;20039;-64
2023/03/05 10:02:17;;;;;;;7.57;4.30;;;8.90;85.70;;;;;;4243941;27;20035;-63
2023/03/05 10:04:25;;;;;;;11.60;4.53;;;9.00;85.60;;;;;;4244789;27;20035;-64
2023/03/05 10:06:34;;;;;;;19.10;9.90;;;8.80;84.60;;;;;;4243944;27;20431;-64
2023/03/05 10:08:47;;;;;;;14.20;7.17;;;8.70;84.60;;;;;;4244617;27;20023;-64
2023/03/05 10:10:52;;;;;;;9.80;5.63;;;8.60;83.00;;;;;;4243827;27;20023;-63
2023/03/05 10:12:59;;;;;;;15.80;9.20;;;8.80;84.50;;;;;;4244556;27;20042;-68
2023/03/05 10:15:02;;;;;;;11.17;5.47;;;8.90;83.50;;;;;;4243530;27;20466;-64
2023/03/05 10:17:43;;;;;;;10.63;6.03;;;8.70;84.30;;;;;;4245214;27;20027;-63
2023/03/05 10:19:45;;;;;;;10.83;5.50;;;8.60;84.20;;;;;;4243466;27;20486;-62
2023/03/05 10:22:11;;;;;;;8.53;3.83;;;8.70;84.50;;;;;;4245602;27;20084;-62
2023/03/05 10:24:18;;;;;;;7.10;3.50;;;8.50;81.00;;;;;;4243833;27;20043;-63
2023/03/05 10:26:26;;;;;;;6.87;3.90;;;8.00;80.70;;;;;;4244576;27;20092;-65
2023/03/05 10:29:04;;;;;;;11.27;4.87;;;7.90;83.20;;;;;;4243826;27;20084;-63
2023/03/05 10:31:34;;;;;;;11.67;4.43;;;8.20;81.40;;;;;;4244252;27;20084;-71